createdAt,value
2023-05-14T00:00:48.737Z,84.58
2023-05-14T00:01:48.744Z,84.98
2023-05-14T00:02:48.827Z,84.78
2023-05-14T00:03:48.854Z,84.58
2023-05-14T00:04:48.703Z,84.37
2023-05-14T00:05:48.694Z,84.58
2023-05-14T00:06:48.676Z,84.98
2023-05-14T00:07:48.666Z,85.02
2023-05-14T00:08:48.657Z,84.82
2023-05-14T00:09:48.649Z,84.82
2023-05-14T00:10:48.638Z,85.43
2023-05-14T00:11:48.624Z,86.04
2023-05-14T00:12:48.611Z,86.18
2023-05-14T00:13:48.609Z,86.29
2023-05-14T00:14:48.587Z,86.29
2023-05-14T00:15:48.589Z,86.69
2023-05-14T00:16:48.567Z,86.90
2023-05-14T00:17:48.563Z,87.14
2023-05-14T00:18:48.589Z,87.14
2023-05-14T00:19:48.540Z,87.04
2023-05-14T00:20:48.519Z,86.94
2023-05-14T00:21:48.524Z,87.14
2023-05-14T00:22:48.517Z,87.14
2023-05-14T00:23:48.503Z,87.35
2023-05-14T00:24:48.478Z,87.45
2023-05-14T00:25:48.470Z,87.65
2023-05-14T00:26:48.453Z,87.76
2023-05-14T00:27:48.458Z,87.96
2023-05-14T00:28:48.430Z,88.17
2023-05-14T00:29:48.426Z,87.96
2023-05-14T00:30:48.411Z,87.65
2023-05-14T00:31:48.468Z,87.76
2023-05-14T00:32:48.437Z,88.10
2023-05-14T00:33:48.381Z,88.10
2023-05-14T00:34:48.364Z,88.31
2023-05-14T00:35:48.358Z,88.20
2023-05-14T00:36:48.354Z,88.41
2023-05-14T00:37:48.358Z,88.82
2023-05-14T00:38:48.321Z,89.02
2023-05-14T00:39:48.316Z,88.76
2023-05-14T00:40:48.298Z,88.45
2023-05-14T00:41:48.312Z,88.14
2023-05-14T00:42:48.280Z,88.35
2023-05-14T00:43:48.273Z,88.85
2023-05-14T00:44:48.255Z,88.85
2023-05-14T00:45:48.261Z,88.76
2023-05-14T00:46:48.295Z,88.76
2023-05-14T00:47:48.244Z,89.17
2023-05-14T00:48:48.214Z,89.26
2023-05-14T00:49:48.253Z,89.06
2023-05-14T00:50:48.206Z,88.96
2023-05-14T00:51:48.185Z,89.06
2023-05-14T00:52:48.167Z,89.06
2023-05-14T00:53:48.161Z,89.17
2023-05-14T00:54:48.151Z,89.37
2023-05-14T00:55:48.148Z,89.17
2023-05-14T00:56:48.124Z,89.37
2023-05-14T00:57:48.151Z,89.58
2023-05-14T00:58:48.098Z,89.78
2023-05-14T00:59:48.106Z,89.88
2023-05-14T01:00:48.133Z,89.98
2023-05-14T01:01:48.075Z,89.88
2023-05-14T01:02:48.137Z,89.98
2023-05-14T01:03:48.174Z,89.98
2023-05-14T01:04:48.066Z,89.98
2023-05-14T01:05:48.032Z,90.08
2023-05-14T01:06:48.011Z,90.08
2023-05-14T01:07:48.005Z,90.19
2023-05-14T01:08:47.991Z,90.08
2023-05-14T01:09:47.988Z,89.67
2023-05-14T01:10:47.974Z,89.58
2023-05-14T01:11:47.960Z,89.67
2023-05-14T01:12:47.962Z,89.67
2023-05-14T01:13:47.944Z,89.78
2023-05-14T01:14:47.939Z,89.58
2023-05-14T01:15:47.923Z,89.17
2023-05-14T01:16:47.998Z,89.06
2023-05-14T01:17:47.950Z,89.06
2023-05-14T01:18:47.936Z,89.17
2023-05-14T01:19:47.894Z,89.37
2023-05-14T01:20:47.864Z,89.47
2023-05-14T01:21:47.845Z,89.26
2023-05-14T01:22:47.883Z,89.37
2023-05-14T01:23:47.832Z,88.04
2023-05-14T01:24:47.816Z,87.23
2023-05-14T01:25:47.802Z,86.47
2023-05-14T01:26:47.794Z,86.67
2023-05-14T01:27:47.792Z,87.18
2023-05-14T01:28:47.781Z,87.59
2023-05-14T01:29:47.758Z,87.49
2023-05-14T01:30:47.751Z,87.18
2023-05-14T01:31:47.775Z,87.18
2023-05-14T01:32:47.956Z,87.29
2023-05-14T01:33:47.711Z,87.38
2023-05-14T01:34:47.707Z,87.49
2023-05-14T01:35:47.699Z,87.18
2023-05-14T01:36:47.692Z,87.08
2023-05-14T01:37:47.675Z,86.16
2023-05-14T01:38:47.671Z,86.57
2023-05-14T01:39:47.659Z,86.36
2023-05-14T01:40:47.647Z,85.24
2023-05-14T01:41:47.633Z,84.63
2023-05-14T01:42:47.683Z,84.33
2023-05-14T01:43:47.613Z,84.53
2023-05-14T01:44:47.590Z,85.14
2023-05-14T01:45:47.698Z,85.55
2023-05-14T01:46:47.585Z,85.65
2023-05-14T01:47:47.622Z,85.96
2023-05-14T01:48:47.552Z,86.47
2023-05-14T01:49:47.534Z,86.77
2023-05-14T01:50:47.529Z,85.75
2023-05-14T01:51:47.540Z,85.14
2023-05-14T01:52:47.513Z,85.24
2023-05-14T01:53:47.498Z,85.35
2023-05-14T01:54:47.490Z,85.35
2023-05-14T01:55:47.545Z,84.74
2023-05-14T01:56:47.470Z,84.63
2023-05-14T01:57:47.437Z,85.55
2023-05-14T01:58:47.445Z,85.96
2023-05-14T01:59:47.427Z,85.86
2023-05-14T02:00:47.428Z,86.30
2023-05-14T02:01:47.441Z,86.30
2023-05-14T02:02:47.429Z,86.30
2023-05-14T02:03:47.407Z,86.91
2023-05-14T02:04:47.384Z,87.23
2023-05-14T02:05:47.384Z,87.43
2023-05-14T02:06:47.349Z,87.73
2023-05-14T02:07:47.337Z,87.73
2023-05-14T02:08:47.332Z,87.73
2023-05-14T02:09:47.319Z,87.84
2023-05-14T02:10:47.311Z,87.84
2023-05-14T02:11:47.291Z,87.57
2023-05-14T02:12:47.288Z,87.88
2023-05-14T02:13:47.273Z,88.29
2023-05-14T02:14:47.274Z,88.39
2023-05-14T02:15:47.309Z,88.39
2023-05-14T02:16:47.241Z,87.88
2023-05-14T02:17:47.274Z,88.18
2023-05-14T02:18:47.292Z,88.18
2023-05-14T02:19:47.216Z,88.59
2023-05-14T02:20:47.198Z,88.70
2023-05-14T02:21:47.187Z,88.84
2023-05-14T02:22:47.176Z,88.43
2023-05-14T02:23:47.168Z,88.74
2023-05-14T02:24:47.167Z,88.94
2023-05-14T02:25:47.135Z,89.15
2023-05-14T02:26:47.129Z,89.15
2023-05-14T02:27:47.116Z,89.25
2023-05-14T02:28:47.120Z,89.25
2023-05-14T02:29:47.100Z,89.35
2023-05-14T02:30:47.087Z,89.50
2023-05-14T02:31:47.099Z,89.39
2023-05-14T02:32:47.118Z,89.50
2023-05-14T02:33:47.063Z,89.90
2023-05-14T02:34:47.044Z,90.00
2023-05-14T02:35:47.028Z,89.90
2023-05-14T02:36:47.050Z,89.80
2023-05-14T02:37:47.013Z,89.90
2023-05-14T02:38:47.003Z,89.90
2023-05-14T02:39:46.989Z,90.31
2023-05-14T02:40:46.976Z,90.52
2023-05-14T02:41:46.961Z,90.52
2023-05-14T02:42:46.961Z,90.52
2023-05-14T02:43:46.947Z,90.52
2023-05-14T02:44:46.933Z,90.41
2023-05-14T02:45:46.930Z,90.62
2023-05-14T02:46:46.974Z,90.62
2023-05-14T02:47:46.923Z,90.82
2023-05-14T02:48:47.009Z,90.92
2023-05-14T02:49:46.871Z,91.03
2023-05-14T02:50:46.873Z,91.07
2023-05-14T02:51:46.876Z,91.27
2023-05-14T02:52:46.858Z,91.38
2023-05-14T02:53:46.830Z,91.17
2023-05-14T02:54:46.830Z,91.07
2023-05-14T02:55:46.814Z,91.17
2023-05-14T02:56:46.815Z,91.38
2023-05-14T02:57:46.800Z,91.27
2023-05-14T02:58:46.778Z,91.48
2023-05-14T02:59:46.763Z,91.69
2023-05-14T03:00:46.802Z,91.58
2023-05-14T03:01:46.765Z,91.48
2023-05-14T03:02:46.872Z,91.48
2023-05-14T03:03:46.727Z,91.69
2023-05-14T03:04:46.723Z,91.69
2023-05-14T03:05:46.713Z,91.78
2023-05-14T03:06:46.713Z,91.78
2023-05-14T03:07:46.687Z,91.78
2023-05-14T03:08:46.679Z,91.69
2023-05-14T03:09:46.653Z,91.89
2023-05-14T03:10:46.659Z,92.10
2023-05-14T03:11:46.649Z,91.99
2023-05-14T03:12:46.624Z,91.99
2023-05-14T03:13:46.616Z,91.93
2023-05-14T03:14:46.599Z,91.93
2023-05-14T03:15:46.599Z,92.03
2023-05-14T03:16:46.608Z,91.93
2023-05-14T03:17:46.584Z,92.03
2023-05-14T03:18:46.591Z,91.93
2023-05-14T03:19:46.560Z,91.73
2023-05-14T03:20:46.543Z,91.73
2023-05-14T03:21:46.524Z,91.93
2023-05-14T03:22:46.516Z,92.24
2023-05-14T03:23:46.502Z,92.59
2023-05-14T03:24:46.493Z,92.69
2023-05-14T03:25:46.491Z,92.69
2023-05-14T03:26:46.570Z,92.59
2023-05-14T03:27:46.457Z,92.38
2023-05-14T03:28:46.539Z,92.18
2023-05-14T03:29:46.447Z,92.03
2023-05-14T03:30:46.442Z,92.03
2023-05-14T03:31:46.424Z,91.93
2023-05-14T03:32:46.468Z,92.03
2023-05-14T03:33:46.396Z,92.24
2023-05-14T03:34:46.389Z,92.24
2023-05-14T03:35:46.369Z,92.34
2023-05-14T03:36:46.361Z,92.24
2023-05-14T03:37:46.350Z,92.24
2023-05-14T03:38:46.346Z,92.14
2023-05-14T03:39:46.340Z,92.14
2023-05-14T03:40:46.317Z,92.14
2023-05-14T03:41:46.307Z,92.14
2023-05-14T03:42:46.293Z,91.97
2023-05-14T03:43:46.292Z,91.97
2023-05-14T03:44:46.296Z,92.14
2023-05-14T03:45:46.260Z,92.49
2023-05-14T03:46:46.245Z,92.65
2023-05-14T03:47:46.261Z,92.85
2023-05-14T03:48:46.312Z,92.85
2023-05-14T03:49:46.236Z,92.96
2023-05-14T03:50:46.196Z,92.85
2023-05-14T03:51:46.200Z,92.96
2023-05-14T03:52:46.196Z,92.65
2023-05-14T03:53:46.191Z,92.65
2023-05-14T03:54:46.176Z,92.65
2023-05-14T03:55:46.159Z,92.65
2023-05-14T03:56:46.141Z,92.65
2023-05-14T03:57:46.149Z,92.85
2023-05-14T03:58:46.122Z,93.01
2023-05-14T03:59:46.109Z,93.01
2023-05-14T04:00:46.092Z,92.91
2023-05-14T04:01:46.090Z,92.60
2023-05-14T04:02:46.140Z,92.40
2023-05-14T04:03:46.334Z,92.50
2023-05-14T04:04:46.067Z,92.50
2023-05-14T04:05:46.066Z,92.19
2023-05-14T04:06:46.041Z,92.10
2023-05-14T04:07:46.037Z,91.99
2023-05-14T04:08:46.071Z,91.99
2023-05-14T04:09:46.007Z,91.99
2023-05-14T04:10:45.985Z,92.19
2023-05-14T04:11:45.978Z,92.10
2023-05-14T04:12:45.971Z,92.19
2023-05-14T04:13:45.948Z,92.30
2023-05-14T04:14:45.963Z,92.25
2023-05-14T04:15:45.932Z,92.25
2023-05-14T04:16:45.967Z,92.25
2023-05-14T04:17:45.921Z,92.15
2023-05-14T04:18:45.958Z,91.74
2023-05-14T04:19:45.882Z,91.54
2023-05-14T04:20:45.876Z,91.23
2023-05-14T04:21:45.873Z,91.23
2023-05-14T04:22:45.856Z,90.92
2023-05-14T04:23:45.868Z,90.88
2023-05-14T04:24:45.877Z,91.09
2023-05-14T04:25:45.867Z,91.19
2023-05-14T04:26:45.826Z,90.88
2023-05-14T04:27:45.792Z,90.47
2023-05-14T04:28:45.793Z,89.76
2023-05-14T04:29:45.767Z,88.94
2023-05-14T04:30:45.776Z,88.33
2023-05-14T04:31:45.770Z,87.88
2023-05-14T04:32:45.791Z,87.88
2023-05-14T04:33:45.726Z,87.67
2023-05-14T04:34:45.717Z,87.16
2023-05-14T04:35:45.729Z,86.91
2023-05-14T04:36:45.695Z,87.02
2023-05-14T04:37:45.679Z,87.12
2023-05-14T04:38:45.678Z,86.20
2023-05-14T04:39:45.681Z,86.71
2023-05-14T04:40:45.698Z,86.20
2023-05-14T04:41:45.634Z,86.41
2023-05-14T04:42:45.622Z,86.47
2023-05-14T04:43:45.614Z,86.47
2023-05-14T04:44:45.633Z,85.65
2023-05-14T04:45:45.612Z,85.45
2023-05-14T04:46:45.600Z,85.35
2023-05-14T04:47:45.608Z,84.80
2023-05-14T04:48:45.565Z,84.90
2023-05-14T04:49:45.555Z,85.21
2023-05-14T04:50:45.586Z,84.69
2023-05-14T04:51:45.521Z,84.69
2023-05-14T04:52:45.547Z,84.18
2023-05-14T04:53:45.511Z,83.98
2023-05-14T04:54:45.546Z,84.34
2023-05-14T04:55:45.470Z,84.39
2023-05-14T04:56:45.475Z,83.78
2023-05-14T04:57:45.453Z,84.08
2023-05-14T04:58:45.456Z,84.39
2023-05-14T04:59:45.443Z,84.28
2023-05-14T05:00:45.438Z,84.08
2023-05-14T05:01:45.836Z,83.57
2023-05-14T05:02:45.438Z,83.94
2023-05-14T05:03:45.468Z,84.04
2023-05-14T05:04:45.386Z,83.94
2023-05-14T05:05:45.402Z,83.53
2023-05-14T05:06:45.357Z,84.55
2023-05-14T05:07:45.382Z,84.34
2023-05-14T05:08:45.353Z,84.14
2023-05-14T05:09:45.353Z,84.04
2023-05-14T05:10:45.325Z,84.14
2023-05-14T05:11:45.306Z,84.34
2023-05-14T05:12:45.314Z,83.94
2023-05-14T05:13:45.286Z,83.84
2023-05-14T05:14:45.284Z,83.94
2023-05-14T05:15:45.278Z,84.25
2023-05-14T05:16:45.254Z,84.34
2023-05-14T05:17:45.319Z,84.34
2023-05-14T05:18:45.267Z,84.34
2023-05-14T05:19:45.249Z,84.55
2023-05-14T05:20:45.209Z,84.75
2023-05-14T05:21:45.196Z,84.96
2023-05-14T05:22:45.203Z,85.88
2023-05-14T05:23:45.173Z,85.30
2023-05-14T05:24:45.199Z,85.61
2023-05-14T05:25:45.155Z,86.02
2023-05-14T05:26:45.154Z,85.61
2023-05-14T05:27:45.141Z,85.82
2023-05-14T05:28:45.125Z,85.92
2023-05-14T05:29:45.114Z,86.12
2023-05-14T05:30:45.138Z,85.82
2023-05-14T05:31:45.145Z,85.71
2023-05-14T05:32:45.139Z,86.43
2023-05-14T05:33:45.063Z,86.43
2023-05-14T05:34:45.055Z,85.71
2023-05-14T05:35:45.045Z,85.57
2023-05-14T05:36:45.044Z,85.98
2023-05-14T05:37:45.020Z,86.18
2023-05-14T05:38:45.012Z,86.18
2023-05-14T05:39:44.993Z,85.98
2023-05-14T05:40:45.016Z,85.98
2023-05-14T05:41:44.996Z,85.94
2023-05-14T05:42:44.975Z,84.51
2023-05-14T05:43:44.950Z,84.31
2023-05-14T05:44:44.943Z,84.51
2023-05-14T05:45:44.935Z,85.13
2023-05-14T05:46:44.931Z,83.80
2023-05-14T05:47:45.028Z,84.06
2023-05-14T05:48:44.901Z,83.45
2023-05-14T05:49:44.951Z,82.90
2023-05-14T05:50:44.929Z,82.50
2023-05-14T05:51:44.860Z,82.56
2023-05-14T05:52:44.871Z,81.85
2023-05-14T05:53:44.843Z,82.76
2023-05-14T05:54:44.840Z,82.12
2023-05-14T05:55:44.831Z,81.98
2023-05-14T05:56:44.814Z,81.02
2023-05-14T05:57:44.796Z,80.92
2023-05-14T05:58:44.789Z,80.27
2023-05-14T05:59:44.782Z,78.75
2023-05-14T06:00:44.760Z,78.64
2023-05-14T06:01:44.777Z,78.44
2023-05-14T06:02:44.826Z,78.85
2023-05-14T06:03:46.937Z,78.75
2023-05-14T06:04:44.739Z,79.12
2023-05-14T06:05:44.775Z,79.93
2023-05-14T06:06:44.713Z,79.49
2023-05-14T06:07:44.688Z,79.38
2023-05-14T06:08:44.697Z,79.08
2023-05-14T06:09:44.665Z,78.84
2023-05-14T06:10:46.850Z,78.74
2023-05-14T06:11:44.644Z,78.13
2023-05-14T06:12:44.669Z,78.33
2023-05-14T06:13:44.623Z,77.83
2023-05-14T06:14:44.611Z,76.98
2023-05-14T06:15:44.598Z,76.06
2023-05-14T06:16:44.624Z,76.61
2023-05-14T06:17:44.648Z,77.79
2023-05-14T06:18:44.610Z,77.52
2023-05-14T06:19:44.554Z,77.72
2023-05-14T06:20:44.549Z,77.59
2023-05-14T06:21:44.563Z,76.67
2023-05-14T06:22:44.533Z,76.57
2023-05-14T06:23:44.518Z,77.79
2023-05-14T06:24:44.502Z,77.89
2023-05-14T06:25:44.493Z,77.59
2023-05-14T06:26:44.474Z,77.28
2023-05-14T06:27:44.478Z,77.65
2023-05-14T06:28:44.456Z,77.55
2023-05-14T06:29:44.442Z,76.94
2023-05-14T06:30:44.501Z,77.45
2023-05-14T06:31:44.430Z,76.94
2023-05-14T06:32:44.515Z,76.33
2023-05-14T06:33:44.396Z,76.70
2023-05-14T06:34:44.395Z,76.40
2023-05-14T06:35:44.387Z,75.15
2023-05-14T06:36:44.381Z,75.15
2023-05-14T06:37:44.402Z,75.08
2023-05-14T06:38:44.348Z,75.65
2023-05-14T06:39:44.363Z,75.55
2023-05-14T06:40:45.270Z,75.52
2023-05-14T06:41:44.344Z,74.00
2023-05-14T06:42:44.301Z,73.96
2023-05-14T06:43:44.287Z,74.27
2023-05-14T06:44:44.280Z,74.67
2023-05-14T06:45:44.274Z,74.87
2023-05-14T06:46:44.266Z,75.75
2023-05-14T06:47:44.285Z,73.76
2023-05-14T06:48:44.286Z,75.18
2023-05-14T06:49:44.221Z,76.09
2023-05-14T06:50:44.209Z,74.63
2023-05-14T06:51:44.208Z,75.04
2023-05-14T06:52:44.182Z,74.84
2023-05-14T06:53:44.176Z,74.94
2023-05-14T06:54:44.265Z,73.90
2023-05-14T06:55:44.168Z,73.59
2023-05-14T06:56:44.156Z,75.01
2023-05-14T06:57:44.130Z,73.43
2023-05-14T06:58:44.121Z,74.30
2023-05-14T06:59:44.107Z,73.19
2023-05-14T07:00:44.111Z,73.66
2023-05-14T07:01:44.156Z,71.53
2023-05-14T07:02:44.112Z,72.99
2023-05-14T07:03:44.067Z,73.05
2023-05-14T07:04:44.106Z,72.00
2023-05-14T07:05:44.051Z,71.64
2023-05-14T07:06:44.033Z,72.31
2023-05-14T07:07:44.019Z,72.21
2023-05-14T07:08:44.014Z,71.40
2023-05-14T07:09:44.002Z,73.02
2023-05-14T07:10:43.995Z,71.87
2023-05-14T07:11:43.980Z,71.87
2023-05-14T07:12:43.962Z,71.37
2023-05-14T07:13:43.965Z,72.48
2023-05-14T07:14:43.951Z,71.87
2023-05-14T07:15:43.946Z,72.68
2023-05-14T07:16:43.931Z,71.97
2023-05-14T07:17:43.929Z,71.77
2023-05-14T07:18:43.939Z,71.47
2023-05-14T07:19:43.897Z,71.10
2023-05-14T07:20:43.881Z,72.88
2023-05-14T07:21:43.863Z,71.26
2023-05-14T07:22:43.861Z,72.17
2023-05-14T07:23:43.836Z,72.14
2023-05-14T07:24:43.846Z,72.20
2023-05-14T07:25:43.826Z,71.91
2023-05-14T07:26:43.815Z,71.40
2023-05-14T07:27:43.797Z,71.20
2023-05-14T07:28:43.799Z,72.00
2023-05-14T07:29:43.786Z,72.11
2023-05-14T07:30:43.769Z,71.00
2023-05-14T07:31:43.909Z,71.91
2023-05-14T07:32:43.784Z,70.79
2023-05-14T07:33:43.761Z,71.80
2023-05-14T07:34:43.721Z,70.76
2023-05-14T07:35:43.715Z,69.55
2023-05-14T07:36:43.715Z,70.26
2023-05-14T07:37:43.694Z,69.52
2023-05-14T07:38:43.689Z,70.36
2023-05-14T07:39:43.671Z,71.06
2023-05-14T07:40:43.678Z,70.36
2023-05-14T07:41:43.648Z,71.17
2023-05-14T07:42:43.645Z,68.95
2023-05-14T07:43:43.632Z,69.38
2023-05-14T07:44:43.612Z,66.94
2023-05-14T07:45:43.601Z,66.37
2023-05-14T07:46:43.589Z,66.34
2023-05-14T07:47:43.688Z,64.67
2023-05-14T07:48:43.647Z,64.40
2023-05-14T07:49:43.558Z,64.07
2023-05-14T07:50:43.608Z,63.17
2023-05-14T07:51:43.529Z,62.94
2023-05-14T07:52:43.546Z,62.55
2023-05-14T07:53:43.508Z,60.25
2023-05-14T07:54:43.524Z,59.72
2023-05-14T07:55:43.491Z,59.32
2023-05-14T07:56:43.497Z,59.06
2023-05-14T07:57:43.490Z,57.57
2023-05-14T07:58:43.480Z,57.71
2023-05-14T07:59:43.440Z,56.48
2023-05-14T08:00:43.445Z,56.43
2023-05-14T08:01:43.477Z,55.61
2023-05-14T08:02:43.589Z,54.91
2023-05-14T08:03:43.497Z,55.63
2023-05-14T08:04:43.390Z,56.98
2023-05-14T08:05:43.386Z,57.48
2023-05-14T08:06:43.380Z,56.01
2023-05-14T08:07:43.360Z,55.88
2023-05-14T08:08:43.347Z,55.96
2023-05-14T08:09:43.338Z,54.44
2023-05-14T08:10:43.392Z,53.59
2023-05-14T08:11:43.342Z,54.16
2023-05-14T08:12:43.309Z,53.88
2023-05-14T08:13:43.294Z,51.30
2023-05-14T08:14:43.282Z,52.62
2023-05-14T08:15:43.277Z,52.39
2023-05-14T08:16:43.325Z,51.70
2023-05-14T08:17:43.259Z,51.60
2023-05-14T08:18:43.313Z,51.97
2023-05-14T08:19:43.225Z,52.42
2023-05-14T08:20:43.229Z,52.19
2023-05-14T08:21:43.209Z,52.12
2023-05-14T08:22:43.201Z,50.58
2023-05-14T08:23:43.183Z,49.93
2023-05-14T08:24:43.222Z,50.28
2023-05-14T08:25:43.169Z,50.81
2023-05-14T08:26:43.152Z,49.96
2023-05-14T08:27:43.151Z,50.05
2023-05-14T08:28:43.167Z,51.20
2023-05-14T08:29:43.137Z,51.05
2023-05-14T08:30:43.158Z,51.47
2023-05-14T08:31:43.098Z,51.28
2023-05-14T08:32:43.143Z,50.28
2023-05-14T08:33:43.070Z,50.10
2023-05-14T08:34:44.075Z,50.78
2023-05-14T08:35:43.065Z,50.85
2023-05-14T08:36:43.044Z,50.63
2023-05-14T08:37:43.029Z,51.87
2023-05-14T08:38:43.035Z,52.76
2023-05-14T08:39:43.042Z,52.17
2023-05-14T08:40:43.001Z,51.22
2023-05-14T08:41:42.983Z,50.78
2023-05-14T08:42:42.980Z,50.11
2023-05-14T08:43:42.972Z,49.76
2023-05-14T08:44:42.966Z,50.75
2023-05-14T08:45:42.944Z,51.15
2023-05-14T08:46:42.941Z,51.35
2023-05-14T08:47:43.006Z,51.60
2023-05-14T08:48:42.964Z,52.44
2023-05-14T08:49:42.924Z,52.74
2023-05-14T08:50:42.889Z,55.21
2023-05-14T08:51:42.892Z,54.81
2023-05-14T08:52:42.886Z,55.54
2023-05-14T08:53:42.868Z,54.96
2023-05-14T08:54:42.846Z,56.11
2023-05-14T08:55:42.830Z,57.46
2023-05-14T08:56:42.826Z,56.59
2023-05-14T08:57:42.902Z,57.55
2023-05-14T08:58:42.805Z,58.43
2023-05-14T08:59:42.787Z,59.06
2023-05-14T09:00:42.778Z,59.69
2023-05-14T09:01:42.824Z,61.10
2023-05-14T09:02:42.819Z,63.17
2023-05-14T09:03:42.780Z,59.94
2023-05-14T09:04:42.741Z,59.11
2023-05-14T09:05:42.725Z,58.61
2023-05-14T09:06:42.713Z,59.23
2023-05-14T09:07:42.708Z,60.84
2023-05-14T09:08:42.691Z,62.44
2023-05-14T09:09:42.683Z,62.92
2023-05-14T09:10:42.670Z,61.51
2023-05-14T09:11:42.667Z,62.01
2023-05-14T09:12:42.667Z,62.51
2023-05-14T09:13:42.647Z,62.11
2023-05-14T09:14:42.626Z,62.92
2023-05-14T09:15:42.685Z,62.61
2023-05-14T09:16:42.782Z,61.41
2023-05-14T09:17:42.614Z,62.34
2023-05-14T09:18:42.642Z,62.34
2023-05-14T09:19:42.568Z,61.84
2023-05-14T09:20:42.570Z,62.04
2023-05-14T09:21:42.562Z,62.61
2023-05-14T09:22:42.580Z,60.74
2023-05-14T09:23:42.534Z,61.54
2023-05-14T09:24:42.518Z,59.94
2023-05-14T09:25:42.511Z,60.74
2023-05-14T09:26:42.506Z,62.61
2023-05-14T09:27:42.487Z,57.60
2023-05-14T09:28:42.475Z,57.50
2023-05-14T09:29:42.465Z,58.50
2023-05-14T09:30:42.457Z,59.23
2023-05-14T09:31:42.491Z,59.81
2023-05-14T09:32:42.495Z,59.41
2023-05-14T09:33:42.418Z,57.40
2023-05-14T09:34:42.429Z,59.20
2023-05-14T09:35:42.404Z,57.13
2023-05-14T09:36:42.390Z,57.93
2023-05-14T09:37:43.340Z,57.83
2023-05-14T09:38:42.381Z,57.73
2023-05-14T09:39:42.355Z,57.73
2023-05-14T09:40:42.355Z,57.13
2023-05-14T09:41:42.324Z,58.83
2023-05-14T09:42:42.324Z,58.20
2023-05-14T09:43:42.299Z,57.73
2023-05-14T09:44:42.310Z,58.23
2023-05-14T09:45:42.287Z,58.43
2023-05-14T09:46:42.270Z,58.00
2023-05-14T09:47:42.346Z,58.94
2023-05-14T09:48:42.272Z,61.11
2023-05-14T09:49:42.244Z,58.43
2023-05-14T09:50:42.229Z,58.43
2023-05-14T09:51:42.211Z,58.33
2023-05-14T09:52:42.204Z,58.73
2023-05-14T09:53:42.183Z,59.16
2023-05-14T09:54:42.192Z,59.96
2023-05-14T09:55:42.170Z,59.26
2023-05-14T09:56:42.165Z,58.46
2023-05-14T09:57:42.174Z,59.36
2023-05-14T09:58:42.151Z,59.46
2023-05-14T09:59:42.132Z,59.64
2023-05-14T10:00:42.114Z,58.53
2023-05-14T10:01:42.273Z,58.50
2023-05-14T10:02:42.120Z,57.63
2023-05-14T10:03:42.088Z,59.74
2023-05-14T10:04:42.121Z,59.00
2023-05-14T10:05:42.061Z,58.61
2023-05-14T10:06:42.103Z,58.11
2023-05-14T10:07:42.070Z,58.81
2023-05-14T10:08:42.059Z,59.41
2023-05-14T10:09:42.017Z,60.48
2023-05-14T10:10:42.019Z,58.48
2023-05-14T10:11:41.997Z,56.67
2023-05-14T10:12:42.001Z,57.68
2023-05-14T10:13:41.986Z,58.58
2023-05-14T10:14:41.962Z,57.87
2023-05-14T10:15:41.954Z,57.87
2023-05-14T10:16:42.023Z,56.48
2023-05-14T10:17:42.497Z,56.20
2023-05-14T10:18:41.966Z,58.30
2023-05-14T10:19:41.911Z,56.48
2023-05-14T10:20:41.900Z,57.17
2023-05-14T10:21:41.887Z,58.18
2023-05-14T10:22:41.882Z,57.87
2023-05-14T10:23:41.867Z,58.28
2023-05-14T10:24:42.461Z,57.28
2023-05-14T10:25:41.866Z,57.28
2023-05-14T10:26:42.416Z,58.61
2023-05-14T10:27:41.888Z,58.87
2023-05-14T10:28:42.440Z,58.68
2023-05-14T10:29:41.858Z,57.98
2023-05-14T10:30:41.814Z,58.98
2023-05-14T10:31:42.517Z,59.95
2023-05-14T10:32:42.093Z,59.15
2023-05-14T10:33:41.863Z,59.42
2023-05-14T10:34:41.763Z,57.82
2023-05-14T10:35:41.959Z,58.82
2023-05-14T10:36:44.389Z,57.42
2023-05-14T10:37:42.504Z,58.22
2023-05-14T10:38:41.776Z,59.79
2023-05-14T10:39:41.689Z,59.59
2023-05-14T10:40:41.688Z,58.29
2023-05-14T10:41:41.927Z,56.95
2023-05-14T10:42:41.656Z,57.87
2023-05-14T10:43:41.647Z,57.80
2023-05-14T10:44:41.632Z,58.30
2023-05-14T10:45:41.626Z,58.91
2023-05-14T10:46:41.666Z,58.70
2023-05-14T10:47:41.655Z,58.37
2023-05-14T10:48:41.585Z,58.07
2023-05-14T10:49:43.837Z,58.58
2023-05-14T10:50:42.350Z,58.18
2023-05-14T10:51:41.612Z,57.98
2023-05-14T10:52:41.549Z,58.28
2023-05-14T10:53:41.563Z,58.37
2023-05-14T10:54:41.537Z,57.87
2023-05-14T10:55:41.519Z,58.20
2023-05-14T10:56:41.524Z,59.70
2023-05-14T10:57:41.494Z,59.41
2023-05-14T10:58:41.466Z,58.91
2023-05-14T10:59:41.479Z,58.81
2023-05-14T11:00:41.444Z,58.33
2023-05-14T11:01:41.480Z,60.44
2023-05-14T11:02:41.487Z,60.64
2023-05-14T11:03:41.522Z,59.23
2023-05-14T11:04:41.415Z,60.24
2023-05-14T11:05:41.395Z,59.33
2023-05-14T11:06:41.383Z,56.96
2023-05-14T11:07:41.382Z,56.93
2023-05-14T11:08:41.364Z,56.33
2023-05-14T11:09:41.373Z,57.13
2023-05-14T11:10:41.351Z,57.93
2023-05-14T11:11:41.333Z,57.63
2023-05-14T11:12:41.322Z,56.63
2023-05-14T11:13:41.316Z,57.93
2023-05-14T11:14:41.310Z,57.20
2023-05-14T11:15:41.293Z,55.22
2023-05-14T11:16:41.279Z,57.20
2023-05-14T11:17:41.389Z,57.50
2023-05-14T11:18:41.283Z,56.00
2023-05-14T11:19:41.267Z,56.60
2023-05-14T11:20:41.236Z,56.60
2023-05-14T11:21:41.270Z,57.40
2023-05-14T11:22:41.310Z,57.87
2023-05-14T11:23:41.241Z,58.28
2023-05-14T11:24:41.189Z,56.77
2023-05-14T11:25:41.182Z,56.48
2023-05-14T11:26:41.342Z,57.87
2023-05-14T11:27:41.305Z,56.07
2023-05-14T11:28:41.182Z,56.35
2023-05-14T11:29:41.136Z,55.57
2023-05-14T11:30:41.142Z,55.77
2023-05-14T11:31:41.153Z,57.07
2023-05-14T11:32:41.155Z,57.65
2023-05-14T11:33:41.099Z,57.95
2023-05-14T11:34:41.081Z,57.75
2023-05-14T11:35:41.069Z,57.92
2023-05-14T11:36:41.059Z,57.52
2023-05-14T11:37:41.052Z,58.59
2023-05-14T11:38:41.051Z,58.56
2023-05-14T11:39:41.021Z,56.77
2023-05-14T11:40:41.013Z,54.86
2023-05-14T11:41:41.001Z,55.84
2023-05-14T11:42:41.013Z,56.27
2023-05-14T11:43:40.978Z,56.77
2023-05-14T11:44:40.964Z,57.50
2023-05-14T11:45:40.984Z,56.99
2023-05-14T11:46:40.989Z,55.89
2023-05-14T11:47:40.958Z,56.70
2023-05-14T11:48:40.929Z,57.62
2023-05-14T11:49:40.910Z,58.12
2023-05-14T11:50:40.900Z,57.12
2023-05-14T11:51:40.915Z,57.22
2023-05-14T11:52:40.896Z,57.32
2023-05-14T11:53:40.864Z,57.52
2023-05-14T11:54:40.859Z,57.92
2023-05-14T11:55:40.848Z,55.62
2023-05-14T11:56:40.850Z,56.02
2023-05-14T11:57:40.958Z,54.44
2023-05-14T11:58:40.809Z,54.57
2023-05-14T11:59:40.792Z,56.48
2023-05-14T12:00:40.798Z,55.27
2023-05-14T12:01:40.781Z,55.47
2023-05-14T12:02:40.879Z,55.90
2023-05-14T12:03:40.918Z,55.57
2023-05-14T12:04:40.764Z,56.27
2023-05-14T12:05:40.736Z,55.10
2023-05-14T12:06:40.732Z,56.00
2023-05-14T12:07:41.005Z,57.50
2023-05-14T12:08:40.699Z,55.77
2023-05-14T12:09:42.537Z,56.17
2023-05-14T12:10:40.680Z,56.48
2023-05-14T12:11:40.667Z,54.27
2023-05-14T12:12:40.654Z,55.13
2023-05-14T12:13:40.660Z,55.70
2023-05-14T12:14:40.627Z,55.60
2023-05-14T12:15:40.656Z,55.60
2023-05-14T12:16:40.627Z,55.00
2023-05-14T12:17:40.646Z,55.00
2023-05-14T12:18:40.628Z,54.97
2023-05-14T12:19:40.580Z,55.57
2023-05-14T12:20:40.572Z,55.47
2023-05-14T12:21:40.553Z,56.17
2023-05-14T12:22:40.542Z,56.48
2023-05-14T12:23:40.526Z,55.85
2023-05-14T12:24:40.533Z,55.35
2023-05-14T12:25:40.512Z,55.35
2023-05-14T12:26:40.497Z,53.55
2023-05-14T12:27:40.505Z,54.67
2023-05-14T12:28:40.477Z,54.67
2023-05-14T12:29:40.470Z,54.87
2023-05-14T12:30:40.469Z,54.35
2023-05-14T12:31:40.496Z,54.74
2023-05-14T12:32:40.440Z,54.64
2023-05-14T12:33:40.419Z,54.44
2023-05-14T12:34:40.421Z,53.94
2023-05-14T12:35:40.403Z,53.55
2023-05-14T12:36:40.416Z,53.74
2023-05-14T12:37:40.372Z,52.94
2023-05-14T12:38:40.375Z,53.24
2023-05-14T12:39:40.365Z,52.84
2023-05-14T12:40:40.340Z,52.02
2023-05-14T12:41:40.327Z,52.22
2023-05-14T12:42:40.363Z,53.12
2023-05-14T12:43:40.311Z,51.12
2023-05-14T12:44:40.312Z,50.82
2023-05-14T12:45:40.315Z,50.72
2023-05-14T12:46:40.282Z,50.82
2023-05-14T12:47:40.388Z,50.82
2023-05-14T12:48:40.266Z,50.22
2023-05-14T12:49:40.229Z,51.02
2023-05-14T12:50:40.231Z,51.52
2023-05-14T12:51:40.212Z,51.74
2023-05-14T12:52:40.321Z,51.94